Time;durP1;ratioP1;P1;durP2;ratioP2;P2;SDS_P1;SDS_P2;PMS_P1;PMS_P2;Temp;Humidity;BMP_temperature;BMP_pressure;BME280_temperature;BME280_humidity;BME280_pressure;Samples;Min_cycle;Max_cycle;Signal;HPM_P1;HPM_P2
2022/06/16 00:00:05;;;;;;;8.30;4.38;;;;;;;14.51;91.14;98391.97;2597062;28;20049;-78
2022/06/16 00:01:23;;;;;;;7.05;4.70;;;;;;;14.46;91.12;98382.53;2597075;28;20473;-78
2022/06/16 00:02:44;;;;;;;7.50;4.75;;;;;;;14.40;90.92;98383.69;2597017;28;20057;-78
2022/06/16 00:04:00;;;;;;;8.52;4.70;;;;;;;14.38;91.38;98382.88;2597120;28;20524;-78
2022/06/16 00:05:22;;;;;;;8.85;5.05;;;;;;;14.34;91.59;98382.19;2597226;28;20108;-79
2022/06/16 00:06:37;;;;;;;6.30;4.32;;;;;;;14.32;91.33;98378.78;2596973;28;20053;-79
2022/06/16 00:07:53;;;;;;;7.97;4.35;;;;;;;14.25;92.27;98380.81;2596907;28;20758;-78
2022/06/16 00:09:08;;;;;;;6.40;4.20;;;;;;;14.26;91.93;98381.66;2597326;28;20080;-79
2022/06/16 00:10:24;;;;;;;6.63;3.88;;;;;;;14.22;92.21;98377.47;2597082;28;20045;-79
2022/06/16 00:11:40;;;;;;;5.85;4.20;;;;;;;14.32;92.14;98380.53;2596810;28;20049;-79
2022/06/16 00:12:55;;;;;;;7.07;3.67;;;;;;;14.25;91.98;98379.97;2596899;28;20496;-78
2022/06/16 00:14:11;;;;;;;4.85;3.70;;;;;;;14.20;91.81;98381.94;2597114;28;20045;-78
2022/06/16 00:15:28;;;;;;;4.50;3.92;;;;;;;14.18;92.10;98378.50;2597266;28;20053;-79
2022/06/16 00:16:45;;;;;;;6.10;4.20;;;;;;;14.09;92.67;98379.75;2597060;28;20143;-79
2022/06/16 00:18:00;;;;;;;6.28;3.88;;;;;;;14.01;93.72;98379.25;2596825;28;20060;-79
2022/06/16 00:19:16;;;;;;;3.88;3.50;;;;;;;13.98;93.89;98386.38;2597027;28;20053;-79
2022/06/16 00:20:31;;;;;;;5.20;4.10;;;;;;;13.91;94.25;98377.00;2597269;28;20088;-79
2022/06/16 00:21:47;;;;;;;5.25;3.80;;;;;;;13.93;94.17;98379.59;2597412;28;20060;-79
2022/06/16 00:23:02;;;;;;;6.85;3.83;;;;;;;13.89;93.94;98385.88;2596954;28;20515;-78
2022/06/16 00:24:18;;;;;;;5.63;3.63;;;;;;;13.82;93.88;98386.16;2596845;28;20045;-78
2022/06/16 00:25:34;;;;;;;6.40;3.75;;;;;;;13.78;94.44;98374.06;2597055;28;20604;-78
2022/06/16 00:26:49;;;;;;;4.80;3.65;;;;;;;13.77;94.62;98382.00;2596896;28;20107;-79
2022/06/16 00:28:05;;;;;;;5.03;3.40;;;;;;;13.76;94.77;98375.91;2597230;28;20060;-79
2022/06/16 00:29:20;;;;;;;4.40;3.72;;;;;;;13.75;95.04;98378.59;2597059;28;20038;-78
2022/06/16 00:30:36;;;;;;;4.70;3.83;;;;;;;13.75;94.88;98376.78;2596964;28;20049;-79
2022/06/16 00:31:52;;;;;;;4.18;3.45;;;;;;;13.75;94.71;98378.59;2596921;28;20049;-78
2022/06/16 00:33:08;;;;;;;4.88;3.85;;;;;;;13.76;94.88;98377.66;2596818;28;20505;-78
2022/06/16 00:34:23;;;;;;;3.78;3.35;;;;;;;13.76;94.71;98375.91;2596385;28;20569;-79
2022/06/16 00:35:39;;;;;;;4.47;3.83;;;;;;;13.72;95.05;98363.78;2596581;28;20057;-78
2022/06/16 00:36:55;;;;;;;6.57;3.60;;;;;;;13.72;94.91;98373.47;2597284;28;20927;-79
2022/06/16 00:38:10;;;;;;;5.35;3.90;;;;;;;13.67;94.65;98371.84;2596909;28;20060;-78
2022/06/16 00:39:26;;;;;;;4.53;3.97;;;;;;;13.64;94.34;98372.00;2596875;28;20060;-78
2022/06/16 00:40:41;;;;;;;5.57;3.80;;;;;;;13.57;94.82;98370.56;2596947;28;20057;-78
2022/06/16 00:42:15;;;;;;;4.18;3.78;;;;;;;13.56;94.82;98374.94;2597032;28;20045;-79
2022/06/16 00:43:32;;;;;;;5.50;3.55;;;;;;;13.53;95.07;98375.06;2597011;28;20558;-78
2022/06/16 00:44:54;;;;;;;5.90;3.85;;;;;;;13.48;95.52;98369.16;2596611;28;20041;-78
2022/06/16 00:46:13;;;;;;;6.57;3.55;;;;;;;13.40;95.64;98369.41;2596979;28;20052;-78
2022/06/16 00:47:30;;;;;;;4.68;3.90;;;;;;;13.37;95.35;98364.28;2596568;28;20061;-78
2022/06/16 00:49:03;;;;;;;5.30;3.65;;;;;;;13.31;95.27;98368.94;2596972;28;20134;-79
2022/06/16 00:50:18;;;;;;;4.13;3.55;;;;;;;13.25;95.38;98367.41;2596773;28;20045;-78
2022/06/16 00:51:39;;;;;;;4.90;3.72;;;;;;;13.23;95.50;98366.63;2596878;28;20049;-80
2022/06/16 00:52:56;;;;;;;6.18;3.92;;;;;;;13.22;95.71;98367.53;2596838;28;20072;-79
2022/06/16 00:54:26;;;;;;;4.70;3.53;;;;;;;13.18;96.02;98364.16;2596565;28;20077;-79
2022/06/16 00:55:42;;;;;;;4.38;3.70;;;;;;;13.12;96.51;98365.25;2596505;28;20048;-78
2022/06/16 00:57:07;;;;;;;4.07;3.67;;;;;;;13.08;96.52;98365.47;2596659;28;20069;-79
2022/06/16 00:58:25;;;;;;;6.72;3.80;;;;;;;13.06;96.18;98360.25;2596640;28;20535;-79
2022/06/16 00:59:41;;;;;;;3.92;3.53;;;;;;;13.05;96.09;98362.94;2596769;28;20065;-78
2022/06/16 01:00:56;;;;;;;5.85;4.10;;;;;;;13.03;96.38;98359.53;2596667;28;20049;-83
2022/06/16 01:02:12;;;;;;;8.20;4.43;;;;;;;13.00;96.71;98358.72;2596652;28;20045;-79
2022/06/16 01:05:02;;;;;;;4.35;3.78;;;;;;;12.98;96.40;98362.31;2596998;28;20620;-79
2022/06/16 01:06:24;;;;;;;5.95;3.83;;;;;;;12.92;96.06;98352.94;2596358;28;20079;-78
2022/06/16 01:07:46;;;;;;;5.45;4.10;;;;;;;12.89;95.75;98358.28;2596817;28;20053;-79
2022/06/16 01:09:24;;;;;;;6.50;4.43;;;;;;;12.88;95.77;98358.38;2596243;28;20076;-79
2022/06/16 01:10:46;;;;;;;4.80;3.70;;;;;;;12.85;95.74;98352.31;2596205;28;20433;-78
2022/06/16 01:13:56;;;;;;;4.65;3.83;;;;;;;12.75;95.63;98360.59;2596456;28;20064;-80
2022/06/16 01:16:01;;;;;;;6.90;4.05;;;;;;;12.65;96.02;98358.34;2596460;28;20051;-79
2022/06/16 01:17:24;;;;;;;4.32;3.75;;;;;;;12.56;96.87;98356.88;2594789;28;20487;-78
2022/06/16 01:18:48;;;;;;;5.72;3.83;;;;;;;12.57;96.62;98369.13;2594551;28;20041;-81
2022/06/16 01:20:30;;;;;;;6.57;4.15;;;;;;;12.56;96.92;98369.19;2596057;28;20049;-79
2022/06/16 01:21:58;;;;;;;9.10;4.43;;;;;;;12.53;96.93;98367.50;2596495;28;20073;-79
2022/06/16 01:23:29;;;;;;;6.60;4.28;;;;;;;12.50;97.75;98366.75;2596209;28;20093;-78
2022/06/16 01:24:47;;;;;;;5.65;4.13;;;;;;;12.50;97.53;98366.75;2596419;28;20049;-78
2022/06/16 01:26:18;;;;;;;18.65;4.75;;;;;;;12.50;97.70;98375.50;2596240;28;20089;-78
2022/06/16 01:27:54;;;;;;;5.55;4.15;;;;;;;12.51;97.28;98363.25;2596561;28;20053;-82
2022/06/16 01:29:23;;;;;;;4.95;4.40;;;;;;;12.65;98.27;98375.84;2596215;28;20058;-78
2022/06/16 01:30:56;;;;;;;5.20;4.15;;;;;;;12.83;99.64;98374.31;2596469;28;20049;-78
2022/06/16 01:32:19;;;;;;;4.80;3.63;;;;;;;12.92;99.22;98378.34;2596431;28;20320;-79
2022/06/16 01:33:58;;;;;;;5.05;3.65;;;;;;;12.98;98.90;98380.72;2596083;28;20080;-78
2022/06/16 01:35:52;;;;;;;4.88;3.80;;;;;;;13.04;99.52;98377.88;2595618;28;20103;-79
2022/06/16 01:37:24;;;;;;;5.75;3.78;;;;;;;13.00;98.95;98381.53;2596328;28;20142;-78
2022/06/16 01:38:43;;;;;;;;;;;;;;;12.95;99.16;98380.84;2597112;28;20076;-78
2022/06/16 01:40:10;;;;;;;4.20;3.75;;;;;;;12.96;99.60;98385.19;2596308;28;20295;-79
2022/06/16 01:41:35;;;;;;;6.20;3.80;;;;;;;12.88;99.56;98377.59;2592816;28;20525;-79
2022/06/16 01:43:23;;;;;;;6.22;3.85;;;;;;;12.79;99.67;98383.22;2596085;28;20050;-78
2022/06/16 01:44:59;;;;;;;5.40;3.72;;;;;;;12.71;99.39;98386.13;2596280;28;20873;-78
2022/06/16 01:46:23;;;;;;;4.45;3.53;;;;;;;12.65;99.21;98381.09;2596149;28;20045;-79
2022/06/16 01:47:45;;;;;;;4.38;3.47;;;;;;;12.61;99.07;98384.78;2595705;28;20061;-78
2022/06/16 01:49:24;;;;;;;4.80;3.45;;;;;;;12.49;99.80;98381.69;2595971;28;20049;-81
2022/06/16 01:50:50;;;;;;;5.55;3.67;;;;;;;12.49;100.00;98388.69;2595743;28;20053;-79
2022/06/16 01:52:12;;;;;;;5.45;3.72;;;;;;;12.48;100.00;98386.97;2596095;28;20526;-79
2022/06/16 01:53:36;;;;;;;4.70;4.20;;;;;;;12.46;100.00;98389.69;2596341;28;20057;-78
2022/06/16 01:54:58;;;;;;;4.43;3.70;;;;;;;12.41;100.00;98378.47;2595970;28;20064;-80
2022/06/16 01:56:56;;;;;;;5.82;4.20;;;;;;;12.45;100.00;98381.84;2595708;28;20049;-77
2022/06/16 01:58:23;;;;;;;4.40;3.78;;;;;;;12.46;100.00;98387.06;2592368;28;20060;-77
2022/06/16 01:59:46;;;;;;;5.07;3.90;;;;;;;12.49;100.00;98389.56;2596321;28;20060;-79
2022/06/16 02:01:05;;;;;;;4.28;3.70;;;;;;;12.48;100.00;98387.84;2595850;28;20075;-79
2022/06/16 02:02:24;;;;;;;4.88;4.35;;;;;;;12.57;100.00;98382.25;2596125;28;20459;-78
2022/06/16 02:03:50;;;;;;;5.25;3.90;;;;;;;12.52;100.00;98380.72;2595996;28;20408;-78
2022/06/16 02:05:06;;;;;;;7.07;3.70;;;;;;;12.42;100.00;98388.06;2595871;28;20068;-78
2022/06/16 02:06:28;;;;;;;5.18;4.20;;;;;;;12.35;100.00;98381.31;2595935;28;20069;-78
2022/06/16 02:07:51;;;;;;;4.70;3.95;;;;;;;12.30;100.00;98381.50;2595640;28;20512;-78
2022/06/16 02:09:12;;;;;;;3.97;3.58;;;;;;;12.28;100.00;98392.03;2595798;28;20524;-78
2022/06/16 02:10:32;;;;;;;6.15;4.00;;;;;;;12.27;100.00;98378.97;2596164;28;20595;-79
2022/06/16 02:11:50;;;;;;;5.32;4.03;;;;;;;12.24;100.00;98379.09;2596026;28;20141;-78
2022/06/16 02:13:07;;;;;;;6.80;4.20;;;;;;;12.24;100.00;98384.34;2596210;28;20045;-78
2022/06/16 02:14:32;;;;;;;5.57;4.35;;;;;;;12.19;100.00;98383.63;2596354;28;20492;-78
2022/06/16 02:15:59;;;;;;;4.38;3.80;;;;;;;12.17;100.00;98382.84;2596040;28;20096;-78
2022/06/16 02:17:15;;;;;;;5.65;4.00;;;;;;;12.10;100.00;98382.19;2595635;28;20049;-78
2022/06/16 02:18:39;;;;;;;5.95;4.03;;;;;;;12.09;100.00;98383.09;2596255;28;20176;-81
2022/06/16 02:19:54;;;;;;;4.93;3.67;;;;;;;12.05;100.00;98381.50;2595810;28;20550;-79
2022/06/16 02:21:17;;;;;;;4.97;3.75;;;;;;;12.02;100.00;98377.22;2596137;28;20224;-78
2022/06/16 02:22:33;;;;;;;4.25;3.83;;;;;;;12.03;100.00;98378.09;2595848;28;20065;-78
2022/06/16 02:23:48;;;;;;;3.92;3.42;;;;;;;12.02;100.00;98379.84;2595896;28;20041;-78
2022/06/16 02:25:05;;;;;;;5.15;3.97;;;;;;;12.02;100.00;98373.75;2596270;28;20077;-79
2022/06/16 02:26:21;;;;;;;6.13;4.22;;;;;;;12.02;100.00;98379.00;2595819;28;20487;-78
2022/06/16 02:27:36;;;;;;;5.05;4.20;;;;;;;12.09;99.41;98373.47;2595873;28;20079;-79
2022/06/16 02:28:57;;;;;;;5.78;4.30;;;;;;;12.02;99.34;98381.63;2595650;28;20163;-78
2022/06/16 02:30:13;;;;;;;4.70;3.67;;;;;;;11.85;100.00;98381.25;2595740;28;20128;-79
2022/06/16 02:32:08;;;;;;;8.40;4.43;;;;;;;11.77;100.00;98382.44;2596016;28;20140;-78
2022/06/16 02:33:38;;;;;;;6.28;3.83;;;;;;;11.72;100.00;98380.78;2594305;28;20057;-78
2022/06/16 02:35:15;;;;;;;5.00;4.00;;;;;;;11.72;100.00;98391.28;2595501;28;20050;-78
2022/06/16 02:36:56;;;;;;;4.72;4.07;;;;;;;11.70;100.00;98387.88;2595679;28;20076;-78
2022/06/16 02:38:32;;;;;;;6.38;4.38;;;;;;;11.72;100.00;98396.53;2596088;28;20069;-78
2022/06/16 02:40:02;;;;;;;6.10;3.97;;;;;;;11.75;100.00;98392.13;2595926;28;20049;-81
2022/06/16 02:41:28;;;;;;;6.57;3.83;;;;;;;11.80;100.00;98391.03;2595970;28;20077;-79
2022/06/16 02:43:09;;;;;;;7.43;4.22;;;;;;;11.84;100.00;98391.78;2596191;28;20405;-78
2022/06/16 02:44:52;;;;;;;7.60;4.45;;;;;;;11.86;100.00;98392.59;2595812;28;20485;-78
2022/06/16 02:46:26;;;;;;;5.25;4.35;;;;;;;11.88;100.00;98393.41;2595259;28;20144;-81
2022/06/16 02:47:57;;;;;;;7.32;4.57;;;;;;;11.90;100.00;98393.34;2589772;28;20100;-79
2022/06/16 02:49:21;;;;;;;7.93;4.35;;;;;;;11.89;100.00;98395.13;2593008;28;20050;-79
2022/06/16 02:50:47;;;;;;;5.88;4.22;;;;;;;11.86;100.00;98397.84;2595584;28;20087;-78
2022/06/16 02:52:08;;;;;;;5.22;3.97;;;;;;;11.81;100.00;98400.63;2595879;28;20073;-78
2022/06/16 02:53:42;;;;;;;4.85;3.75;;;;;;;11.77;100.00;98395.53;2595476;28;20492;-78
2022/06/16 02:55:10;;;;;;;6.75;3.90;;;;;;;11.77;100.00;98400.78;2595547;28;20054;-78
2022/06/16 02:56:53;;;;;;;5.72;4.13;;;;;;;11.73;100.00;98393.03;2595837;28;20050;-78
2022/06/16 02:58:10;;;;;;;4.72;3.85;;;;;;;11.72;100.00;98393.91;2595714;28;20119;-78
2022/06/16 02:59:32;;;;;;;4.03;3.63;;;;;;;11.64;100.00;98392.47;2595592;28;20053;-78
2022/06/16 03:00:52;;;;;;;5.23;3.70;;;;;;;11.54;100.00;98389.28;2595973;28;20064;-82
2022/06/16 03:02:12;;;;;;;4.13;3.72;;;;;;;11.52;100.00;98388.47;2595751;28;20470;-79
2022/06/16 03:03:36;;;;;;;6.75;4.10;;;;;;;11.53;100.00;98380.59;2595480;28;20077;-81
2022/06/16 03:04:56;;;;;;;5.20;4.30;;;;;;;11.55;100.00;98383.13;2595554;28;20096;-78
2022/06/16 03:06:12;;;;;;;6.00;3.90;;;;;;;11.55;100.00;98385.75;2595593;28;20060;-79
2022/06/16 03:07:28;;;;;;;6.03;3.95;;;;;;;11.58;100.00;98383.03;2595681;28;20068;-79
2022/06/16 03:08:44;;;;;;;4.50;3.90;;;;;;;11.58;100.00;98380.41;2595685;28;20057;-79
2022/06/16 03:10:00;;;;;;;6.97;4.00;;;;;;;11.58;100.00;98383.91;2595368;28;20153;-79
2022/06/16 03:11:16;;;;;;;5.97;4.90;;;;;;;11.61;100.00;98376.84;2595844;28;20049;-77
2022/06/16 03:12:32;;;;;;;5.70;4.25;;;;;;;11.73;100.00;98377.28;2595543;28;20099;-78
2022/06/16 03:13:48;;;;;;;5.13;4.25;;;;;;;11.70;100.00;98379.16;2595622;28;20445;-81
2022/06/16 03:15:04;;;;;;;4.78;4.22;;;;;;;11.67;100.00;98377.47;2595788;28;20056;-78
2022/06/16 03:16:20;;;;;;;5.38;4.88;;;;;;;11.67;100.00;98372.25;2595609;28;20135;-77
2022/06/16 03:17:36;;;;;;;5.05;4.35;;;;;;;11.69;100.00;98380.06;2595990;28;20045;-78
2022/06/16 03:18:51;;;;;;;7.47;4.80;;;;;;;11.71;100.00;98378.25;2595572;28;20119;-78
2022/06/16 03:20:09;;;;;;;5.47;4.57;;;;;;;11.69;100.00;98383.53;2595945;28;20076;-83
2022/06/16 03:21:24;;;;;;;6.88;4.75;;;;;;;11.69;100.00;98385.31;2597713;28;21035;-80
2022/06/16 03:22:40;;;;;;;5.85;4.80;;;;;;;11.69;100.00;98374.81;2597548;28;20057;-78
2022/06/16 03:23:56;;;;;;;5.80;4.50;;;;;;;11.67;100.00;98382.72;2597810;28;20045;-81
2022/06/16 03:25:12;;;;;;;8.85;5.00;;;;;;;11.68;100.00;98383.59;2597677;28;20559;-77
2022/06/16 03:26:28;;;;;;;6.72;5.20;;;;;;;11.67;100.00;98379.28;2597579;28;20085;-78
2022/06/16 03:27:43;;;;;;;7.45;4.70;;;;;;;11.69;100.00;98380.06;2597807;28;20056;-77
2022/06/16 03:28:59;;;;;;;6.32;4.65;;;;;;;11.66;100.00;98381.03;2597389;28;20551;-78
2022/06/16 03:30:15;;;;;;;5.03;4.28;;;;;;;11.65;100.00;98381.06;2597663;28;20523;-81
2022/06/16 03:31:30;;;;;;;5.70;4.13;;;;;;;11.63;100.00;98381.13;2597418;28;20054;-78
2022/06/16 03:32:46;;;;;;;4.78;4.13;;;;;;;11.61;100.00;98375.09;2597624;28;20060;-78
2022/06/16 03:34:01;;;;;;;5.80;4.50;;;;;;;11.62;100.00;98379.41;2596937;28;20053;-81
2022/06/16 03:35:17;;;;;;;6.80;4.53;;;;;;;11.62;100.00;98381.16;2597765;28;20496;-77
2022/06/16 03:36:33;;;;;;;6.38;4.10;;;;;;;11.63;100.00;98375.00;2597205;28;20053;-79
2022/06/16 03:37:49;;;;;;;6.05;4.20;;;;;;;11.62;100.00;98375.91;2597787;28;20050;-78
2022/06/16 03:39:05;;;;;;;4.90;3.65;;;;;;;11.65;100.00;98373.19;2597166;28;20127;-77
2022/06/16 03:40:22;;;;;;;4.97;3.88;;;;;;;11.67;100.00;98374.88;2597415;28;20049;-77
2022/06/16 03:41:38;;;;;;;5.00;4.43;;;;;;;11.72;100.00;98374.72;2595710;28;20457;-77
2022/06/16 03:42:53;;;;;;;5.35;4.53;;;;;;;11.75;100.00;98373.75;2597610;28;20045;-78
2022/06/16 03:44:09;;;;;;;5.35;4.50;;;;;;;11.80;100.00;98369.22;2597508;28;20870;-79
2022/06/16 03:45:24;;;;;;;4.70;4.22;;;;;;;11.83;100.00;98363.84;2597357;28;20441;-78
2022/06/16 03:46:40;;;;;;;4.93;4.45;;;;;;;11.85;100.00;98367.28;2596387;28;20053;-81
2022/06/16 03:47:55;;;;;;;7.47;4.57;;;;;;;11.87;100.00;98361.06;2597704;28;20470;-78
2022/06/16 03:49:11;;;;;;;6.22;4.40;;;;;;;11.86;100.00;98359.34;2597409;28;20408;-79
2022/06/16 03:50:27;;;;;;;4.90;4.40;;;;;;;11.88;100.00;98356.69;2597323;28;20418;-84
2022/06/16 03:51:43;;;;;;;4.72;4.30;;;;;;;11.89;100.00;98353.16;2597527;28;20068;-78
2022/06/16 03:52:58;;;;;;;5.88;4.38;;;;;;;11.91;100.00;98353.09;2597263;28;20064;-79
2022/06/16 03:54:14;;;;;;;6.85;4.78;;;;;;;11.94;100.00;98352.97;2596181;28;20095;-78
2022/06/16 03:55:30;;;;;;;5.45;4.55;;;;;;;11.96;100.00;98359.88;2597248;28;20045;-78
2022/06/16 03:56:45;;;;;;;7.50;4.78;;;;;;;12.03;100.00;98357.94;2594497;28;20294;-78
2022/06/16 03:58:01;;;;;;;5.80;4.55;;;;;;;12.12;100.00;98357.63;2597265;28;20512;-77
2022/06/16 03:59:21;;;;;;;6.32;4.80;;;;;;;12.15;100.00;98351.38;2596728;28;20046;-78
2022/06/16 04:00:37;;;;;;;4.65;4.20;;;;;;;12.17;100.00;98349.59;2596758;28;20186;-79
2022/06/16 04:01:53;;;;;;;5.68;4.93;;;;;;;12.20;100.00;98338.97;2597109;28;20678;-79
2022/06/16 04:04:45;;;;;;;5.38;4.88;;;;;;;12.20;100.00;98341.59;2596758;28;20046;-78
2022/06/16 04:06:00;;;;;;;8.48;4.82;;;;;;;12.21;100.00;98342.44;2596858;28;20404;-76
2022/06/16 04:07:16;;;;;;;6.72;4.78;;;;;;;12.21;100.00;98339.81;2596979;28;20226;-76
2022/06/16 04:08:32;;;;;;;7.40;4.82;;;;;;;12.19;100.00;98339.00;2597201;28;20046;-76
2022/06/16 04:09:47;;;;;;;5.53;4.93;;;;;;;12.27;100.00;98339.59;2597134;28;20486;-76
2022/06/16 04:11:26;;;;;;;6.03;4.65;;;;;;;12.25;100.00;98344.91;2596897;28;20422;-76
2022/06/16 04:12:38;;;;;;;5.82;4.85;;;;;;;12.24;100.00;98350.22;2596911;28;20076;-76
2022/06/16 04:14:00;;;;;;;5.88;4.80;;;;;;;12.21;100.00;98338.06;2596824;28;20495;-79
2022/06/16 04:15:16;;;;;;;6.35;5.00;;;;;;;12.22;100.00;98352.91;2596659;28;20049;-78
2022/06/16 04:16:35;;;;;;;9.27;5.43;;;;;;;12.24;100.00;98353.69;2596530;28;20464;-81
2022/06/16 04:17:50;;;;;;;7.40;4.72;;;;;;;12.27;100.00;98356.19;2595924;28;20420;-78
2022/06/16 04:19:07;;;;;;;6.45;5.18;;;;;;;12.26;100.00;98361.53;2594287;28;20042;-78
2022/06/16 04:20:23;;;;;;;12.00;4.90;;;;;;;12.24;100.00;98358.94;2594683;28;20107;-78
2022/06/16 04:21:42;;;;;;;7.55;5.28;;;;;;;12.27;100.00;98363.22;2595360;28;20164;-80
2022/06/16 04:22:57;;;;;;;7.15;5.30;;;;;;;12.40;100.00;98361.00;2595123;28;20515;-77
2022/06/16 04:24:14;;;;;;;5.70;4.97;;;;;;;12.44;100.00;98362.63;2593849;28;20049;-77
2022/06/16 04:25:32;;;;;;;5.60;4.85;;;;;;;12.62;100.00;98363.69;2595455;28;20442;-77
2022/06/16 04:26:51;;;;;;;6.15;4.82;;;;;;;12.73;100.00;98370.31;2595187;28;20053;-77
2022/06/16 04:28:07;;;;;;;5.43;4.93;;;;;;;12.79;100.00;98365.69;2594818;28;20072;-77
2022/06/16 04:29:25;;;;;;;8.23;5.25;;;;;;;12.83;100.00;98367.25;2594591;28;20099;-77
2022/06/16 04:30:42;;;;;;;5.15;4.28;;;;;;;12.88;100.00;98371.50;2594050;28;20119;-78
2022/06/16 04:32:01;;;;;;;5.63;4.72;;;;;;;12.92;100.00;98373.97;2593997;28;20049;-76
2022/06/16 04:33:18;;;;;;;8.02;4.82;;;;;;;13.05;100.00;98369.06;2589612;28;20077;-77
2022/06/16 04:34:34;;;;;;;6.68;4.78;;;;;;;12.98;100.00;98373.72;2593400;28;20045;-77
2022/06/16 04:35:51;;;;;;;6.63;5.05;;;;;;;13.04;100.00;98358.59;2594861;28;20049;-77
2022/06/16 04:37:06;;;;;;;5.47;4.82;;;;;;;13.03;100.00;98365.66;2595489;28;20045;-77
2022/06/16 04:38:22;;;;;;;9.25;4.82;;;;;;;13.04;100.00;98361.22;2595945;28;20053;-78
2022/06/16 04:39:38;;;;;;;5.80;4.65;;;;;;;13.16;100.00;98367.78;2596689;28;20046;-79
2022/06/16 04:40:53;;;;;;;5.68;4.90;;;;;;;13.17;100.00;98370.34;2596823;28;20094;-79
2022/06/16 04:42:09;;;;;;;4.57;4.18;;;;;;;13.13;100.00;98364.38;2596480;28;20053;-78
2022/06/16 04:43:29;;;;;;;8.27;5.13;;;;;;;13.07;100.00;98364.59;2596695;28;20148;-78
2022/06/16 04:44:45;;;;;;;5.97;4.65;;;;;;;13.03;100.00;98360.38;2596939;28;20667;-78
2022/06/16 04:46:03;;;;;;;7.80;4.85;;;;;;;13.09;100.00;98359.28;2596761;28;20072;-78
2022/06/16 04:47:19;;;;;;;7.60;5.10;;;;;;;13.03;100.00;98360.38;2595946;28;20088;-79
2022/06/16 04:48:38;;;;;;;6.15;4.57;;;;;;;13.01;100.00;98362.22;2591582;28;20080;-80
2022/06/16 04:49:53;;;;;;;6.18;5.55;;;;;;;13.00;100.00;98353.47;2592822;28;20049;-79
2022/06/16 04:51:11;;;;;;;5.75;4.95;;;;;;;13.00;100.00;98360.53;2594537;28;20500;-78
2022/06/16 04:52:26;;;;;;;7.20;5.15;;;;;;;13.03;100.00;98360.38;2590928;28;20045;-77
2022/06/16 04:53:42;;;;;;;8.70;5.07;;;;;;;13.06;100.00;98364.66;2593008;28;20134;-76
2022/06/16 04:54:58;;;;;;;5.93;4.85;;;;;;;13.15;100.00;98361.66;2595138;28;20045;-77
2022/06/16 04:56:13;;;;;;;6.65;5.00;;;;;;;13.19;100.00;98357.16;2595684;28;20053;-76
2022/06/16 04:57:29;;;;;;;6.18;4.43;;;;;;;13.32;100.00;98357.50;2595635;28;20340;-76
2022/06/16 04:58:44;;;;;;;4.68;4.28;;;;;;;13.51;99.36;98365.53;2595037;28;20080;-78
2022/06/16 05:00:00;;;;;;;6.13;4.60;;;;;;;13.59;99.69;98366.06;2593840;28;20041;-77
2022/06/16 05:01:16;;;;;;;5.57;4.25;;;;;;;13.62;99.71;98357.19;2594938;28;20397;-76
2022/06/16 05:02:31;;;;;;;5.15;4.63;;;;;;;13.75;99.40;98365.44;2594857;28;20065;-76
2022/06/16 05:03:47;;;;;;;4.90;4.40;;;;;;;13.91;98.52;98358.59;2596055;28;20058;-76
2022/06/16 05:05:03;;;;;;;4.82;4.32;;;;;;;13.94;98.46;98353.19;2596671;28;20053;-77
2022/06/16 05:06:18;;;;;;;5.43;4.35;;;;;;;14.02;98.31;98357.28;2596196;28;20618;-76
2022/06/16 05:07:34;;;;;;;5.07;4.40;;;;;;;14.07;98.25;98357.91;2595869;28;20131;-76
2022/06/16 05:08:50;;;;;;;5.85;4.25;;;;;;;14.11;96.63;98359.53;2593770;28;20060;-76
2022/06/16 05:10:06;;;;;;;6.22;4.38;;;;;;;14.18;96.50;98350.41;2595418;28;20367;-76
2022/06/16 05:11:22;;;;;;;6.40;4.90;;;;;;;14.30;97.03;98356.06;2595925;28;20136;-75
2022/06/16 05:12:38;;;;;;;5.63;4.97;;;;;;;14.46;97.04;98354.44;2595690;28;20056;-76
2022/06/16 05:13:53;;;;;;;5.40;4.70;;;;;;;14.53;96.82;98358.53;2595756;28;20057;-75
2022/06/16 05:15:09;;;;;;;8.02;5.13;;;;;;;14.71;95.33;98352.44;2596160;28;20049;-78
2022/06/16 05:16:25;;;;;;;6.10;4.85;;;;;;;14.72;95.64;98343.66;2593529;28;21130;-75
2022/06/16 05:17:40;;;;;;;8.25;5.15;;;;;;;14.73;95.77;98343.59;2595523;28;20468;-75
2022/06/16 05:18:56;;;;;;;5.07;4.45;;;;;;;14.72;94.47;98347.16;2595687;28;20567;-76
2022/06/16 05:20:12;;;;;;;7.07;4.20;;;;;;;14.75;94.84;98349.63;2595920;28;20049;-76
2022/06/16 05:21:27;;;;;;;8.32;4.60;;;;;;;14.80;95.04;98350.28;2596124;28;20056;-76
2022/06/16 05:22:43;;;;;;;4.90;4.40;;;;;;;14.93;94.21;98347.06;2596005;28;20076;-77
2022/06/16 05:23:59;;;;;;;5.82;4.47;;;;;;;15.01;93.81;98350.19;2595868;28;20475;-77
2022/06/16 05:25:14;;;;;;;7.40;4.30;;;;;;;15.00;93.45;98355.53;2596059;28;20611;-77
2022/06/16 05:26:30;;;;;;;6.63;4.40;;;;;;;15.01;94.16;98362.50;2596029;28;20061;-77
2022/06/16 05:27:45;;;;;;;4.47;4.07;;;;;;;15.04;94.43;98360.59;2596187;28;20116;-78
2022/06/16 05:29:01;;;;;;;4.97;4.15;;;;;;;15.14;94.52;98357.53;2596219;28;20057;-77
2022/06/16 05:30:16;;;;;;;5.30;4.28;;;;;;;15.28;93.58;98362.13;2596321;28;20071;-76
2022/06/16 05:31:34;;;;;;;4.70;4.20;;;;;;;15.35;92.46;98360.91;2596127;28;20057;-75
2022/06/16 05:32:49;;;;;;;5.70;4.60;;;;;;;15.41;92.56;98367.66;2596077;28;20095;-77
2022/06/16 05:34:05;;;;;;;6.25;4.20;;;;;;;15.48;91.75;98366.41;2595661;28;20785;-76
2022/06/16 05:35:21;;;;;;;6.07;4.47;;;;;;;15.62;92.37;98374.50;2596006;28;20056;-78
2022/06/16 05:36:37;;;;;;;4.55;3.83;;;;;;;15.72;91.39;98368.78;2595777;28;20419;-76
2022/06/16 05:37:53;;;;;;;5.28;3.80;;;;;;;15.80;90.65;98371.88;2596496;28;20055;-76
2022/06/16 05:39:08;;;;;;;4.75;4.10;;;;;;;15.79;92.07;98368.38;2596529;28;20050;-77
2022/06/16 05:40:25;;;;;;;5.72;3.97;;;;;;;15.83;91.37;98369.09;2596112;28;20053;-79
2022/06/16 05:41:41;;;;;;;6.10;4.22;;;;;;;15.89;90.47;98374.06;2596579;28;20080;-77
2022/06/16 05:42:56;;;;;;;5.03;4.18;;;;;;;15.90;89.55;98367.03;2595425;28;20072;-78
2022/06/16 05:44:12;;;;;;;5.15;4.10;;;;;;;15.97;88.89;98376.31;2596184;28;20118;-77
2022/06/16 05:45:28;;;;;;;4.72;4.22;;;;;;;16.02;88.13;98371.69;2596434;28;20076;-78
2022/06/16 05:46:43;;;;;;;5.78;4.10;;;;;;;16.03;88.51;98372.50;2595979;28;20057;-78
2022/06/16 05:47:59;;;;;;;4.95;3.97;;;;;;;16.01;88.24;98367.34;2595905;28;20111;-78
2022/06/16 05:49:15;;;;;;;4.25;3.85;;;;;;;16.08;88.04;98365.22;2596292;28;20085;-78
2022/06/16 05:50:30;;;;;;;4.85;3.97;;;;;;;16.09;87.71;98367.78;2596295;28;20459;-81
2022/06/16 05:51:46;;;;;;;4.75;3.95;;;;;;;16.09;88.46;98369.56;2595938;28;20080;-78
2022/06/16 05:53:01;;;;;;;4.43;4.03;;;;;;;16.17;88.06;98379.72;2596136;28;20096;-78
2022/06/16 05:54:17;;;;;;;5.95;4.28;;;;;;;16.17;88.22;98372.66;2596207;28;20119;-78
2022/06/16 05:55:33;;;;;;;5.75;4.07;;;;;;;16.19;88.25;98375.22;2596355;28;20769;-78
2022/06/16 05:56:48;;;;;;;5.32;4.40;;;;;;;16.29;88.29;98380.88;2596192;28;20045;-78
2022/06/16 05:58:04;;;;;;;4.65;4.15;;;;;;;16.23;87.48;98377.63;2596321;28;20106;-78
2022/06/16 05:59:20;;;;;;;5.85;4.00;;;;;;;16.25;87.34;98377.53;2596067;28;20063;-79
2022/06/16 06:00:35;;;;;;;5.80;4.20;;;;;;;16.22;87.70;98375.94;2596381;28;20481;-79
2022/06/16 06:01:51;;;;;;;5.68;3.97;;;;;;;16.32;87.08;98375.41;2596337;28;20179;-79
2022/06/16 06:03:06;;;;;;;5.70;3.70;;;;;;;16.37;86.98;98374.25;2596393;28;20052;-77
2022/06/16 06:04:22;;;;;;;5.50;3.95;;;;;;;16.42;87.75;98375.81;2596087;28;20045;-76
2022/06/16 06:05:37;;;;;;;5.40;4.18;;;;;;;16.43;87.53;98370.44;2596269;28;20054;-76
2022/06/16 06:06:54;;;;;;;5.88;4.18;;;;;;;16.45;87.91;98371.19;2596138;28;20052;-77
2022/06/16 06:17:43;;;;;;;17.95;4.20;;;;;;;16.78;85.16;98378.25;2595878;28;20554;-75
2022/06/16 06:19:45;;;;;;;5.47;4.07;;;;;;;16.87;85.52;98381.31;2595922;28;20478;-76
2022/06/16 06:20:35;;;;;;;6.00;3.88;;;;;;;16.93;85.33;98378.34;2594962;28;20499;-75
2022/06/16 06:22:02;;;;;;;4.68;4.03;;;;;;;17.01;85.37;98376.16;2595878;28;20136;-75
2022/06/16 06:23:18;;;;;;;6.88;4.30;;;;;;;17.08;85.52;98374.00;2595700;28;20049;-75
2022/06/16 06:24:45;;;;;;;10.88;4.28;;;;;;;17.15;83.56;98377.16;2595711;28;20053;-75
2022/06/16 06:26:01;;;;;;;7.22;3.85;;;;;;;17.26;84.23;98372.13;2595548;28;20551;-75
2022/06/16 06:27:20;;;;;;;4.82;4.03;;;;;;;17.32;82.12;98377.09;2595902;28;20076;-75